Air Resources Laboratory banner image
Air Resources Laboratory web site National Oceanic and Atmospheric Administration (NOAA)

mo metar


KAIZ 190856Z AUTO 00000KT 2 1/2SM BR OVC003 01/01 A3015 RMK AO2 SLP218
 T00110006 55001 FZRANO=
KCDJ 190852Z AUTO 00000KT M07/M08 A3015 RMK AO1 SLP225 T10671078 56005=
KCGI 190853Z AUTO 35005KT 3SM BR OVC005 04/03 A3011 RMK AO2 CIG 003V008 SLP197
 60003 T00390028 56009=
KCOU 190854Z AUTO 28004KT 1 1/2SM BR OVC003 01/ A3014 RMK AO2 SLP215 T0011
 55000 $=
KDMO 190853Z AUTO 00000KT 10SM OVC012 01/M01 A3015 RMK AO2 SLP218 T00061006
 58001=
KFAM 190856Z AUTO 00000KT 3SM BR OVC004 02/01 A3012 RMK AO2 SLP206 60001
 T00170011 56005 FZRANO=
KIRK 190855Z AUTO 24003KT 10SM CLR M07/M08 A3012 RMK AO2 SLP215 I1000 I3000
 T10721083 55005=
KJEF 190853Z AUTO 31003KT 3SM BR OVC005 02/01 A3016 RMK AO2 SLP208 T00170006
 55000=
KJLN 190853Z AUTO 26004KT 4SM BR OVC006 00/M01 A3018 RMK AO2 CIG 005V011 SLP226
 T00001011 55002=
KMCI 190853Z 19005KT 9SM CLR M07/M08 A3013 RMK AO2 SLP213 T10671078 57002=
KMKC 190854Z 00000KT 9SM CLR M03/M06 A3016 RMK AO2 SLP218 I1000 I3000 T10331056
 55000=
KPOF 190853Z AUTO 34005KT 4SM BR OVC006 04/04 A3011 RMK AO2 SLP201 T00440039
 58005=
KSET 190854Z AUTO 34004KT 3SM UP BR OVC007 02/01 A3015 RMK AO2 UPB49 SLP210
 P0000 60000 T00220011 55002=
KSGF 190852Z 25005KT 4SM BR OVC005 00/M01 A3013 RMK AO2 CIG 003V008 SLP212
 T00001011 56003=
KSTJ 190853Z AUTO 19004KT 7SM CLR M06/M06 A3013 RMK AO2 SLP212 I1000 I3000
 T10611061 58007=
KSTL 190851Z 33005KT 1 1/2SM BR OVC002 02/02 A3014 RMK AO2 SLP215 60000
 T00220022 55003 $=
KSUS 190854Z 30004KT 2 1/2SM BR OVC003 02/02 A3015 RMK AO2 SLP214 T00220017
 53003=
KSZL 190856Z COR 23003KT 10SM OVC024 01/M02 A3012 RMK AO2A SLP210 ALSTG ESTMD
 53001 $ COR 0858=
KTBN 190856Z AUTO 27003KT 8SM OVC003 01/00 A3012 RMK AO2 SLP212 T00051001 55002
 $=
KUNO 190853Z AUTO 30004KT 3SM BR OVC004 02/02 A3012 RMK AO2 SLP205 T00220017
 58000=
KVIH 190852Z AUTO 28004KT 1/2SM FG VV002 01/M01 A3013 RMK AO2 SLP212 T00061006
 55003=